createdAt,value
2022-08-26T00:00:48.476Z,62.92
2022-08-26T00:01:48.514Z,62.23
2022-08-26T00:02:48.570Z,62.32
2022-08-26T00:03:48.426Z,62.32
2022-08-26T00:04:48.386Z,61.83
2022-08-26T00:05:48.381Z,61.93
2022-08-26T00:06:48.370Z,62.62
2022-08-26T00:07:48.341Z,62.23
2022-08-26T00:08:48.334Z,62.35
2022-08-26T00:09:48.318Z,62.55
2022-08-26T00:10:48.327Z,62.65
2022-08-26T00:11:48.290Z,62.95
2022-08-26T00:12:48.296Z,63.28
2022-08-26T00:13:49.476Z,63.18
2022-08-26T00:14:48.254Z,63.58
2022-08-26T00:15:48.251Z,63.88
2022-08-26T00:16:49.045Z,64.21
2022-08-26T00:17:48.214Z,64.61
2022-08-26T00:18:48.200Z,65.20
2022-08-26T00:19:48.187Z,65.70
2022-08-26T00:20:48.639Z,66.03
2022-08-26T00:21:48.725Z,66.63
2022-08-26T00:22:48.150Z,66.93
2022-08-26T00:23:48.137Z,67.23
2022-08-26T00:24:48.208Z,67.83
2022-08-26T00:25:48.142Z,68.43
2022-08-26T00:26:48.111Z,68.83
2022-08-26T00:27:48.082Z,69.16
2022-08-26T00:28:48.079Z,69.66
2022-08-26T00:29:48.060Z,69.86
2022-08-26T00:30:48.059Z,69.96
2022-08-26T00:31:48.071Z,70.26
2022-08-26T00:32:48.023Z,70.36
2022-08-26T00:33:48.007Z,70.65
2022-08-26T00:34:54.033Z,70.65
2022-08-26T00:35:48.027Z,70.56
2022-08-26T00:36:51.914Z,70.76
2022-08-26T00:37:48.632Z,70.46
2022-08-26T00:38:48.069Z,70.46
2022-08-26T00:39:48.014Z,69.79
2022-08-26T00:40:47.938Z,70.09
2022-08-26T00:41:47.935Z,69.89
2022-08-26T00:42:47.906Z,70.19
2022-08-26T00:43:48.149Z,70.59
2022-08-26T00:44:47.887Z,70.79
2022-08-26T00:45:47.967Z,71.09
2022-08-26T00:46:47.900Z,71.49
2022-08-26T00:47:47.859Z,71.59
2022-08-26T00:48:47.828Z,71.99
2022-08-26T00:49:47.829Z,71.89
2022-08-26T00:50:47.866Z,72.39
2022-08-26T00:51:47.803Z,73.12
2022-08-26T00:52:48.264Z,74.02
2022-08-26T00:53:47.768Z,74.82
2022-08-26T00:54:47.753Z,75.22
2022-08-26T00:55:47.768Z,75.62
2022-08-26T00:56:47.728Z,75.92
2022-08-26T00:57:47.715Z,76.12
2022-08-26T00:58:47.699Z,76.52
2022-08-26T00:59:47.867Z,77.02
2022-08-26T01:00:47.745Z,77.62
2022-08-26T01:01:47.735Z,78.31
2022-08-26T01:02:47.679Z,78.96
2022-08-26T01:03:47.642Z,79.05
2022-08-26T01:04:47.620Z,79.25
2022-08-26T01:05:47.625Z,79.61
2022-08-26T01:06:47.592Z,79.61
2022-08-26T01:07:47.596Z,79.96
2022-08-26T01:08:47.565Z,80.11
2022-08-26T01:09:47.556Z,80.41
2022-08-26T01:10:47.575Z,80.85
2022-08-26T01:11:47.547Z,81.05
2022-08-26T01:12:47.532Z,81.35
2022-08-26T01:13:47.520Z,81.56
2022-08-26T01:14:47.493Z,81.65
2022-08-26T01:15:47.509Z,81.85
2022-08-26T01:16:47.500Z,81.85
2022-08-26T01:17:47.532Z,82.15
2022-08-26T01:18:47.455Z,82.35
2022-08-26T01:19:47.426Z,82.65
2022-08-26T01:20:47.451Z,82.85
2022-08-26T01:21:47.403Z,83.15
2022-08-26T01:22:47.409Z,83.29
2022-08-26T01:23:47.371Z,83.59
2022-08-26T01:24:47.375Z,83.79
2022-08-26T01:25:47.344Z,83.99
2022-08-26T01:26:47.387Z,83.99
2022-08-26T01:29:55.432Z,84.49
2022-08-26T01:30:55.945Z,84.59
2022-08-26T01:31:56.017Z,84.69
2022-08-26T01:32:55.888Z,84.79
2022-08-26T01:33:55.892Z,84.89
2022-08-26T01:34:55.854Z,84.99
2022-08-26T01:35:55.857Z,84.99
2022-08-26T01:36:55.855Z,85.19
2022-08-26T01:37:55.822Z,85.39
2022-08-26T01:38:55.838Z,85.59
2022-08-26T01:39:55.812Z,85.89
2022-08-26T01:40:55.794Z,85.89
2022-08-26T01:41:55.778Z,85.89
2022-08-26T01:42:55.745Z,86.09
2022-08-26T01:43:55.733Z,86.19
2022-08-26T01:44:55.736Z,86.23
2022-08-26T01:45:55.754Z,86.33
2022-08-26T01:46:55.717Z,86.53
2022-08-26T01:47:56.749Z,86.53
2022-08-26T01:48:55.692Z,86.63
2022-08-26T01:49:55.697Z,86.63
2022-08-26T01:50:55.672Z,86.73
2022-08-26T01:51:55.651Z,86.93
2022-08-26T01:52:55.633Z,87.03
2022-08-26T01:53:55.606Z,87.23
2022-08-26T01:54:55.607Z,87.34
2022-08-26T01:55:55.602Z,87.43
2022-08-26T01:56:55.574Z,87.53
2022-08-26T01:57:56.330Z,87.63
2022-08-26T01:58:55.541Z,87.83
2022-08-26T01:59:55.529Z,87.83
2022-08-26T02:00:55.582Z,87.93
2022-08-26T02:01:55.512Z,88.03
2022-08-26T02:02:55.491Z,88.13
2022-08-26T02:03:55.475Z,88.33
2022-08-26T02:04:55.524Z,88.57
2022-08-26T02:05:55.494Z,88.68
2022-08-26T02:06:55.441Z,88.87
2022-08-26T02:07:55.426Z,88.98
2022-08-26T02:08:55.422Z,88.98
2022-08-26T02:09:55.413Z,89.07
2022-08-26T02:10:55.404Z,89.18
2022-08-26T02:11:55.385Z,89.18
2022-08-26T02:12:55.378Z,89.18
2022-08-26T02:13:55.352Z,89.37
2022-08-26T02:14:55.335Z,89.37
2022-08-26T02:15:55.440Z,89.58
2022-08-26T02:16:55.312Z,89.37
2022-08-26T02:17:55.307Z,89.48
2022-08-26T02:18:55.289Z,89.37
2022-08-26T02:19:55.313Z,89.48
2022-08-26T02:20:55.278Z,89.48
2022-08-26T02:21:55.243Z,89.58
2022-08-26T02:22:55.235Z,89.78
2022-08-26T02:23:56.043Z,89.78
2022-08-26T02:24:55.212Z,89.87
2022-08-26T02:25:55.236Z,89.78
2022-08-26T02:26:55.221Z,89.87
2022-08-26T02:29:55.763Z,89.78
2022-08-26T02:30:56.771Z,89.87
2022-08-26T02:31:56.740Z,89.98
2022-08-26T02:32:56.725Z,90.17
2022-08-26T02:33:56.728Z,90.17
2022-08-26T02:34:56.699Z,90.28
2022-08-26T02:35:56.705Z,90.28
2022-08-26T02:36:56.673Z,90.37
2022-08-26T02:37:56.656Z,90.62
2022-08-26T02:38:56.650Z,90.62
2022-08-26T02:39:56.650Z,90.62
2022-08-26T02:40:56.643Z,90.72
2022-08-26T02:41:56.611Z,90.82
2022-08-26T02:42:57.065Z,90.82
2022-08-26T02:43:56.591Z,90.92
2022-08-26T02:44:56.566Z,91.12
2022-08-26T02:45:56.569Z,91.12
2022-08-26T02:46:56.587Z,91.22
2022-08-26T02:47:56.547Z,91.32
2022-08-26T02:48:56.525Z,91.32
2022-08-26T02:49:56.520Z,91.42
2022-08-26T02:50:56.515Z,91.66
2022-08-26T02:51:56.492Z,91.66
2022-08-26T02:52:56.464Z,91.86
2022-08-26T02:53:56.446Z,91.97
2022-08-26T02:54:56.490Z,92.07
2022-08-26T02:55:56.436Z,92.07
2022-08-26T02:56:56.441Z,92.07
2022-08-26T02:57:56.421Z,92.07
2022-08-26T02:58:56.384Z,92.07
2022-08-26T02:59:56.388Z,92.07
2022-08-26T03:00:56.435Z,92.07
2022-08-26T03:01:56.434Z,92.16
2022-08-26T03:02:56.326Z,92.27
2022-08-26T03:03:56.308Z,92.36
2022-08-26T03:04:57.529Z,92.57
2022-08-26T03:05:56.308Z,92.67
2022-08-26T03:06:56.313Z,92.77
2022-08-26T03:07:56.267Z,92.86
2022-08-26T03:08:56.258Z,92.86
2022-08-26T03:09:56.231Z,92.86
2022-08-26T03:10:56.232Z,93.01
2022-08-26T03:11:56.230Z,93.01
2022-08-26T03:12:56.214Z,93.11
2022-08-26T03:13:56.179Z,93.11
2022-08-26T03:14:56.218Z,93.11
2022-08-26T03:15:56.256Z,93.31
2022-08-26T03:16:56.153Z,93.51
2022-08-26T03:17:56.146Z,93.51
2022-08-26T03:18:56.187Z,93.51
2022-08-26T03:19:57.295Z,93.51
2022-08-26T03:20:56.112Z,93.51
2022-08-26T03:21:57.960Z,93.62
2022-08-26T03:22:56.106Z,93.62
2022-08-26T03:23:56.074Z,93.62
2022-08-26T03:24:56.031Z,93.71
2022-08-26T03:25:56.084Z,93.71
2022-08-26T03:26:56.014Z,93.81
2022-08-26T03:27:55.996Z,93.81
2022-08-26T03:28:55.994Z,93.81
2022-08-26T03:29:55.972Z,93.81
2022-08-26T03:30:55.994Z,93.91
2022-08-26T03:31:55.937Z,93.91
2022-08-26T03:32:55.942Z,94.01
2022-08-26T03:33:59.201Z,94.01
2022-08-26T03:34:55.956Z,93.91
2022-08-26T03:35:55.914Z,93.91
2022-08-26T03:36:55.897Z,93.91
2022-08-26T03:37:55.869Z,94.01
2022-08-26T03:38:55.844Z,94.12
2022-08-26T03:39:55.905Z,93.91
2022-08-26T03:40:55.848Z,93.91
2022-08-26T03:41:55.849Z,93.81
2022-08-26T03:42:55.814Z,93.91
2022-08-26T03:44:00.965Z,93.81
2022-08-26T03:44:55.879Z,93.81
2022-08-26T03:45:55.759Z,93.87
2022-08-26T03:46:55.810Z,93.87
2022-08-26T03:47:55.728Z,93.77
2022-08-26T03:48:55.714Z,93.77
2022-08-26T03:49:55.703Z,93.57
2022-08-26T03:50:55.689Z,93.47
2022-08-26T03:51:55.692Z,93.37
2022-08-26T03:52:55.662Z,93.27
2022-08-26T03:53:55.647Z,93.37
2022-08-26T03:54:55.633Z,93.23
2022-08-26T03:55:55.627Z,93.02
2022-08-26T03:56:55.627Z,93.02
2022-08-26T03:57:55.596Z,92.93
2022-08-26T03:58:55.579Z,92.97
2022-08-26T03:59:55.584Z,93.02
2022-08-26T04:00:55.930Z,93.02
2022-08-26T04:01:55.603Z,93.02
2022-08-26T04:02:55.510Z,93.07
2022-08-26T04:03:55.526Z,92.93
2022-08-26T04:04:55.509Z,93.02
2022-08-26T04:05:55.491Z,92.82
2022-08-26T04:06:55.495Z,92.93
2022-08-26T04:07:55.430Z,92.93
2022-08-26T04:08:55.393Z,93.02
2022-08-26T04:09:55.446Z,92.93
2022-08-26T04:10:55.419Z,92.82
2022-08-26T04:11:55.381Z,92.82
2022-08-26T04:12:55.335Z,92.93
2022-08-26T04:13:55.339Z,92.93
2022-08-26T04:14:55.364Z,92.72
2022-08-26T04:15:55.356Z,92.62
2022-08-26T04:16:55.499Z,92.62
2022-08-26T04:17:56.105Z,92.52
2022-08-26T04:18:55.291Z,92.42
2022-08-26T04:19:55.249Z,92.42
2022-08-26T04:20:55.233Z,92.52
2022-08-26T04:21:55.238Z,92.52
2022-08-26T04:22:55.246Z,92.52
2022-08-26T04:23:55.198Z,92.52
2022-08-26T04:24:55.179Z,92.62
2022-08-26T04:25:55.172Z,92.62
2022-08-26T04:26:55.165Z,92.32
2022-08-26T04:27:55.154Z,92.42
2022-08-26T04:28:55.147Z,92.52
2022-08-26T04:29:55.448Z,92.62
2022-08-26T04:30:55.327Z,92.62
2022-08-26T04:31:55.381Z,92.62
2022-08-26T04:32:55.079Z,92.72
2022-08-26T04:33:55.108Z,92.72
2022-08-26T04:34:55.036Z,92.82
2022-08-26T04:35:55.036Z,92.72
2022-08-26T04:36:55.049Z,92.72
2022-08-26T04:37:55.029Z,92.72
2022-08-26T04:38:54.990Z,92.62
2022-08-26T04:39:55.054Z,92.62
2022-08-26T04:40:54.958Z,92.52
2022-08-26T04:41:54.976Z,92.52
2022-08-26T04:42:54.991Z,92.52
2022-08-26T04:43:54.930Z,92.42
2022-08-26T04:44:54.910Z,92.32
2022-08-26T04:45:54.917Z,92.12
2022-08-26T04:46:55.021Z,92.02
2022-08-26T04:47:54.879Z,91.92
2022-08-26T04:48:54.872Z,91.92
2022-08-26T04:49:54.860Z,92.02
2022-08-26T04:50:54.921Z,92.12
2022-08-26T04:51:54.853Z,92.22
2022-08-26T04:52:54.803Z,92.22
2022-08-26T04:53:54.794Z,92.12
2022-08-26T04:54:54.773Z,92.22
2022-08-26T04:55:55.249Z,92.22
2022-08-26T04:56:54.810Z,92.12
2022-08-26T04:57:54.750Z,92.22
2022-08-26T04:58:54.744Z,92.02
2022-08-26T04:59:54.722Z,92.12
2022-08-26T05:00:55.129Z,92.12
2022-08-26T05:01:54.748Z,92.12
2022-08-26T05:02:54.680Z,92.12
2022-08-26T05:03:54.706Z,91.92
2022-08-26T05:04:54.645Z,91.88
2022-08-26T05:05:54.633Z,91.78
2022-08-26T05:06:59.276Z,91.67
2022-08-26T05:07:54.618Z,91.58
2022-08-26T05:08:54.591Z,91.28
2022-08-26T05:09:54.590Z,91.28
2022-08-26T05:10:54.574Z,91.38
2022-08-26T05:11:54.580Z,91.38
2022-08-26T05:19:59.169Z,91.72
2022-08-26T05:20:59.760Z,91.62
2022-08-26T05:21:59.731Z,91.62
2022-08-26T05:22:59.714Z,91.72
2022-08-26T05:23:59.690Z,91.67
2022-08-26T05:24:59.682Z,91.48
2022-08-26T05:26:00.363Z,91.28
2022-08-26T05:26:59.690Z,91.28
2022-08-26T05:29:54.444Z,90.98
2022-08-26T05:30:54.214Z,90.88
2022-08-26T05:31:54.179Z,90.78
2022-08-26T05:32:55.408Z,90.88
2022-08-26T05:33:54.142Z,91.08
2022-08-26T05:34:54.119Z,91.17
2022-08-26T05:35:54.130Z,91.28
2022-08-26T05:36:54.103Z,91.28
2022-08-26T05:37:54.082Z,91.08
2022-08-26T05:38:54.071Z,90.88
2022-08-26T05:39:54.124Z,90.58
2022-08-26T05:40:54.099Z,90.37
2022-08-26T05:41:54.032Z,90.28
2022-08-26T05:42:54.019Z,90.37
2022-08-26T05:43:54.021Z,90.58
2022-08-26T05:44:56.026Z,90.67
2022-08-26T05:45:54.052Z,90.78
2022-08-26T05:46:53.974Z,90.78
2022-08-26T05:47:53.963Z,90.58
2022-08-26T05:48:53.970Z,90.58
2022-08-26T05:49:53.934Z,90.58
2022-08-26T05:50:53.979Z,90.58
2022-08-26T05:51:53.898Z,90.58
2022-08-26T05:52:53.889Z,90.78
2022-08-26T05:53:54.740Z,90.88
2022-08-26T05:54:53.934Z,90.48
2022-08-26T05:55:54.155Z,90.37
2022-08-26T05:56:53.877Z,90.48
2022-08-26T05:57:53.844Z,90.23
2022-08-26T05:58:53.811Z,90.03
2022-08-26T05:59:53.796Z,89.94
2022-08-26T06:00:53.822Z,89.53
2022-08-26T06:01:53.842Z,89.43
2022-08-26T06:02:53.835Z,89.33
2022-08-26T06:03:53.750Z,89.23
2022-08-26T06:04:53.849Z,89.23
2022-08-26T06:05:53.744Z,89.03
2022-08-26T06:06:53.732Z,89.03
2022-08-26T06:07:53.730Z,88.93
2022-08-26T06:08:53.696Z,88.64
2022-08-26T06:10:01.632Z,88.73
2022-08-26T06:10:53.722Z,88.73
2022-08-26T06:11:53.711Z,88.73
2022-08-26T06:12:53.644Z,88.53
2022-08-26T06:13:53.625Z,88.93
2022-08-26T06:14:53.612Z,88.93
2022-08-26T06:15:53.643Z,88.83
2022-08-26T06:16:53.570Z,88.93
2022-08-26T06:17:53.586Z,89.14
2022-08-26T06:18:53.560Z,89.14
2022-08-26T06:19:53.556Z,89.14
2022-08-26T06:20:57.773Z,89.23
2022-08-26T06:21:54.882Z,89.23
2022-08-26T06:22:53.508Z,89.23
2022-08-26T06:23:53.494Z,89.33
2022-08-26T06:24:53.500Z,89.14
2022-08-26T06:25:53.489Z,88.93
2022-08-26T06:26:53.479Z,88.73
2022-08-26T06:29:53.997Z,88.83
2022-08-26T06:30:55.062Z,88.64
2022-08-26T06:31:56.180Z,88.53
2022-08-26T06:32:55.012Z,88.64
2022-08-26T06:33:54.937Z,88.69
2022-08-26T06:34:54.924Z,88.64
2022-08-26T06:35:54.922Z,88.23
2022-08-26T06:36:54.901Z,88.23
2022-08-26T06:37:54.876Z,88.13
2022-08-26T06:38:54.870Z,88.13
2022-08-26T06:39:54.921Z,88.43
2022-08-26T06:40:54.866Z,88.53
2022-08-26T06:41:54.827Z,88.43
2022-08-26T06:42:54.823Z,88.33
2022-08-26T06:43:54.804Z,88.29
2022-08-26T06:44:54.787Z,87.89
2022-08-26T06:45:54.848Z,88.09
2022-08-26T06:46:54.820Z,87.99
2022-08-26T06:47:54.745Z,87.89
2022-08-26T06:48:54.736Z,87.79
2022-08-26T06:49:54.721Z,87.79
2022-08-26T06:50:54.747Z,87.79
2022-08-26T06:51:54.745Z,87.79
2022-08-26T06:52:54.704Z,87.19
2022-08-26T06:53:54.673Z,87.29
2022-08-26T06:54:54.704Z,87.29
2022-08-26T06:55:54.708Z,87.29
2022-08-26T06:56:54.628Z,87.13
2022-08-26T06:57:54.617Z,87.19
2022-08-26T06:58:54.604Z,87.39
2022-08-26T06:59:54.585Z,87.19
2022-08-26T07:00:54.597Z,86.99
2022-08-26T07:01:54.849Z,86.79
2022-08-26T07:02:54.606Z,86.59
2022-08-26T07:03:54.562Z,86.49
2022-08-26T07:04:54.605Z,86.59
2022-08-26T07:05:54.528Z,86.49
2022-08-26T07:06:54.491Z,86.25
2022-08-26T07:07:54.482Z,86.35
2022-08-26T07:08:54.471Z,86.35
2022-08-26T07:09:54.453Z,86.15
2022-08-26T07:10:55.840Z,85.65
2022-08-26T07:11:54.430Z,85.85
2022-08-26T07:19:53.669Z,85.01
2022-08-26T07:20:54.655Z,85.31
2022-08-26T07:21:54.629Z,85.55
2022-08-26T07:22:54.607Z,85.65
2022-08-26T07:23:58.727Z,85.85
2022-08-26T07:24:54.586Z,85.85
2022-08-26T07:25:54.584Z,86.05
2022-08-26T07:26:54.559Z,86.05
2022-08-26T07:27:54.653Z,86.45
2022-08-26T07:28:54.533Z,86.29
2022-08-26T07:29:54.537Z,86.19
2022-08-26T07:30:54.591Z,86.49
2022-08-26T07:31:54.518Z,86.59
2022-08-26T07:33:00.968Z,86.79
2022-08-26T07:33:54.440Z,86.55
2022-08-26T07:34:54.437Z,86.19
2022-08-26T07:35:54.433Z,86.39
2022-08-26T07:36:55.356Z,86.69
2022-08-26T07:37:57.075Z,86.69
2022-08-26T07:38:54.397Z,86.89
2022-08-26T07:39:54.405Z,86.89
2022-08-26T07:40:54.429Z,86.79
2022-08-26T07:41:54.361Z,86.49
2022-08-26T07:42:54.353Z,86.49
2022-08-26T07:43:54.326Z,86.69
2022-08-26T07:44:54.311Z,86.59
2022-08-26T07:45:54.298Z,86.49
2022-08-26T07:46:54.277Z,86.49
2022-08-26T07:47:54.259Z,86.59
2022-08-26T07:48:54.250Z,86.59
2022-08-26T07:49:54.298Z,86.69
2022-08-26T07:50:54.275Z,87.09
2022-08-26T07:51:54.229Z,87.09
2022-08-26T07:52:54.196Z,87.39
2022-08-26T07:53:54.181Z,87.19
2022-08-26T07:54:54.208Z,86.99
2022-08-26T07:55:54.181Z,86.69
2022-08-26T07:56:54.141Z,86.59
2022-08-26T07:57:54.133Z,86.59
2022-08-26T07:58:54.123Z,86.49
2022-08-26T07:59:55.178Z,86.59
2022-08-26T08:00:54.116Z,86.69
2022-08-26T08:01:54.292Z,86.59
2022-08-26T08:02:54.064Z,86.89
2022-08-26T08:03:54.050Z,86.79
2022-08-26T08:04:54.071Z,86.89
2022-08-26T08:05:54.040Z,86.79
2022-08-26T08:06:54.023Z,86.89
2022-08-26T08:07:54.058Z,86.89
2022-08-26T08:08:53.994Z,87.03
2022-08-26T08:09:53.976Z,86.93
2022-08-26T08:10:54.032Z,86.93
2022-08-26T08:11:53.953Z,87.34
2022-08-26T08:12:53.933Z,87.43
2022-08-26T08:13:56.413Z,87.53
2022-08-26T08:14:53.918Z,87.43
2022-08-26T08:15:53.909Z,87.43
2022-08-26T08:16:54.744Z,87.13
2022-08-26T08:17:55.660Z,87.23
2022-08-26T08:18:53.896Z,87.53
2022-08-26T08:19:53.839Z,87.73
2022-08-26T08:20:59.417Z,87.63
2022-08-26T08:21:53.831Z,87.63
2022-08-26T08:22:53.889Z,87.53
2022-08-26T08:23:53.789Z,87.83
2022-08-26T08:24:53.784Z,87.79
2022-08-26T08:25:53.780Z,87.49
2022-08-26T08:26:53.755Z,86.99
2022-08-26T08:27:53.742Z,86.99
2022-08-26T08:28:53.737Z,87.09
2022-08-26T08:29:53.719Z,86.09
2022-08-26T08:30:53.766Z,86.19
2022-08-26T08:31:57.952Z,85.99
2022-08-26T08:32:53.679Z,86.05
2022-08-26T08:33:53.659Z,85.45
2022-08-26T08:34:53.654Z,85.15
2022-08-26T08:35:53.650Z,84.85
2022-08-26T08:36:53.839Z,84.65
2022-08-26T08:37:53.638Z,84.65
2022-08-26T08:38:53.596Z,84.55
2022-08-26T08:39:53.613Z,84.35
2022-08-26T08:40:53.595Z,83.89
2022-08-26T08:41:53.558Z,84.09
2022-08-26T08:43:53.534Z,84.09
2022-08-26T08:44:53.521Z,84.29
2022-08-26T08:45:53.608Z,84.29
2022-08-26T08:46:53.507Z,84.09
2022-08-26T08:47:54.647Z,83.69
2022-08-26T08:48:53.468Z,83.69
2022-08-26T08:49:53.502Z,83.79
2022-08-26T08:50:53.452Z,83.55
2022-08-26T08:51:53.436Z,83.15
2022-08-26T08:52:53.431Z,82.75
2022-08-26T08:53:54.650Z,83.09
2022-08-26T08:54:53.403Z,83.29
2022-08-26T08:55:53.410Z,83.19
2022-08-26T08:56:53.378Z,82.99
2022-08-26T08:57:53.661Z,83.25
2022-08-26T08:58:53.358Z,82.85
2022-08-26T08:59:53.320Z,82.55
2022-08-26T09:00:53.388Z,82.55
2022-08-26T09:01:54.124Z,82.55
2022-08-26T09:02:53.291Z,82.85
2022-08-26T09:03:53.294Z,82.95
2022-08-26T09:04:53.267Z,82.45
2022-08-26T09:05:53.259Z,81.92
2022-08-26T09:06:53.294Z,81.92
2022-08-26T09:07:53.220Z,81.92
2022-08-26T09:08:53.206Z,81.71
2022-08-26T09:09:53.190Z,81.41
2022-08-26T09:10:53.201Z,81.61
2022-08-26T09:11:53.168Z,81.21
2022-08-26T09:12:53.161Z,81.07
2022-08-26T09:13:53.138Z,80.88
2022-08-26T09:14:53.137Z,80.98
2022-08-26T09:15:53.127Z,81.18
2022-08-26T09:16:53.214Z,80.47
2022-08-26T09:17:53.161Z,80.58
2022-08-26T09:18:53.119Z,80.38
2022-08-26T09:19:53.116Z,80.38
2022-08-26T09:20:53.073Z,80.18
2022-08-26T09:21:53.302Z,80.38
2022-08-26T09:22:53.028Z,80.38
2022-08-26T09:23:53.007Z,80.47
2022-08-26T09:24:53.003Z,80.58
2022-08-26T09:26:52.976Z,80.68
2022-08-26T09:27:53.122Z,80.77
2022-08-26T09:28:52.957Z,80.88
2022-08-26T09:29:52.934Z,80.68
2022-08-26T09:30:52.988Z,80.98
2022-08-26T09:31:52.922Z,80.77
2022-08-26T09:32:55.972Z,80.88
2022-08-26T09:33:52.880Z,81.07
2022-08-26T09:34:52.956Z,81.07
2022-08-26T09:35:52.861Z,80.77
2022-08-26T09:36:52.840Z,80.47
2022-08-26T09:37:52.881Z,80.82
2022-08-26T09:38:52.827Z,81.12
2022-08-26T09:39:52.888Z,81.31
2022-08-26T09:40:58.935Z,81.61
2022-08-26T09:41:52.798Z,81.31
2022-08-26T09:42:52.773Z,80.91
2022-08-26T09:43:52.763Z,81.41
2022-08-26T09:44:52.756Z,81.75
2022-08-26T09:45:54.967Z,81.75
2022-08-26T09:46:52.771Z,82.15
2022-08-26T09:47:52.699Z,81.85
2022-08-26T09:48:53.166Z,81.81
2022-08-26T09:49:52.688Z,81.92
2022-08-26T09:50:52.657Z,81.92
2022-08-26T09:51:52.644Z,81.21
2022-08-26T09:52:52.632Z,81.81
2022-08-26T09:53:52.615Z,81.61
2022-08-26T09:54:52.619Z,81.31
2022-08-26T09:55:52.587Z,81.81
2022-08-26T09:56:52.583Z,81.81
2022-08-26T09:57:52.596Z,81.31
2022-08-26T09:58:52.558Z,81.31
2022-08-26T09:59:52.556Z,81.41
2022-08-26T10:00:52.545Z,81.21
2022-08-26T10:01:52.786Z,81.12
2022-08-26T10:02:54.787Z,81.15
2022-08-26T10:03:52.562Z,81.75
2022-08-26T10:04:52.508Z,81.61
2022-08-26T10:05:52.459Z,81.45
2022-08-26T10:06:52.491Z,81.45
2022-08-26T10:07:52.436Z,81.45
2022-08-26T10:08:52.437Z,81.75
2022-08-26T10:09:52.567Z,81.75
2022-08-26T10:10:53.135Z,81.45
2022-08-26T10:11:52.383Z,81.75
2022-08-26T10:12:52.374Z,81.65
2022-08-26T10:13:52.362Z,81.35
2022-08-26T10:14:52.392Z,81.01
2022-08-26T10:15:52.338Z,81.21
2022-08-26T10:16:52.370Z,81.12
2022-08-26T10:17:52.375Z,81.12
2022-08-26T10:18:54.726Z,80.32
2022-08-26T10:19:57.057Z,80.11
2022-08-26T10:20:52.278Z,80.62
2022-08-26T10:21:54.039Z,80.68
2022-08-26T10:22:52.246Z,80.27
2022-08-26T10:23:52.238Z,80.04
2022-08-26T10:24:55.177Z,79.24
2022-08-26T10:25:52.199Z,79.14
2022-08-26T10:26:52.211Z,79.17
2022-08-26T10:27:53.815Z,79.48
2022-08-26T10:28:52.196Z,79.68
2022-08-26T10:29:52.529Z,80.27
2022-08-26T10:30:52.148Z,80.27
2022-08-26T10:31:52.178Z,79.58
2022-08-26T10:32:52.118Z,79.58
2022-08-26T10:33:55.456Z,79.68
2022-08-26T10:34:52.120Z,79.97
2022-08-26T10:35:52.097Z,79.04
2022-08-26T10:37:14.785Z,79.34
2022-08-26T10:37:52.056Z,78.74
2022-08-26T10:38:52.039Z,79.04
2022-08-26T10:39:56.962Z,79.14
2022-08-26T10:40:52.076Z,78.30
2022-08-26T10:41:52.048Z,78.04
2022-08-26T10:42:51.997Z,78.84
2022-08-26T10:43:51.966Z,78.70
2022-08-26T10:44:51.963Z,78.20
2022-08-26T10:45:52.036Z,78.41
2022-08-26T10:46:51.938Z,78.20
2022-08-26T10:47:51.924Z,78.41
2022-08-26T10:48:52.095Z,78.60
2022-08-26T10:49:51.898Z,78.20
2022-08-26T10:50:51.903Z,78.00
2022-08-26T10:51:51.891Z,77.81
2022-08-26T10:52:51.861Z,78.00
2022-08-26T10:53:51.896Z,78.41
2022-08-26T10:54:51.844Z,78.67
2022-08-26T10:55:51.834Z,77.31
2022-08-26T10:56:51.826Z,77.21
2022-08-26T10:57:51.832Z,77.51
2022-08-26T10:58:51.780Z,77.81
2022-08-26T10:59:51.796Z,78.20
2022-08-26T11:00:51.814Z,77.87
2022-08-26T11:01:52.567Z,77.87
2022-08-26T11:02:51.745Z,76.87
2022-08-26T11:03:51.845Z,76.97
2022-08-26T11:04:51.781Z,77.07
2022-08-26T11:05:51.711Z,77.37
2022-08-26T11:06:51.679Z,77.47
2022-08-26T11:07:51.668Z,77.57
2022-08-26T11:08:51.667Z,77.07
2022-08-26T11:09:51.683Z,76.87
2022-08-26T11:10:51.677Z,76.57
2022-08-26T11:11:51.636Z,76.97
2022-08-26T11:12:51.598Z,77.27
2022-08-26T11:13:51.610Z,77.17
2022-08-26T11:14:56.211Z,76.87
2022-08-26T11:15:51.600Z,77.47
2022-08-26T11:16:51.622Z,77.87
2022-08-26T11:17:51.558Z,76.97
2022-08-26T11:18:51.524Z,77.13
2022-08-26T11:20:01.044Z,76.34
2022-08-26T11:20:51.571Z,76.14
2022-08-26T11:21:51.503Z,76.04
2022-08-26T11:22:51.484Z,76.37
2022-08-26T11:23:52.924Z,76.57
2022-08-26T11:24:51.485Z,76.67
2022-08-26T11:25:51.441Z,76.47
2022-08-26T11:26:56.182Z,76.77
2022-08-26T11:27:51.418Z,76.57
2022-08-26T11:28:51.403Z,76.73
2022-08-26T11:29:51.405Z,76.04
2022-08-26T11:30:56.991Z,76.04
2022-08-26T11:31:51.416Z,76.00
2022-08-26T11:32:51.341Z,75.80
2022-08-26T11:33:51.335Z,74.90
2022-08-26T11:34:51.344Z,74.07
2022-08-26T11:35:52.205Z,73.97
2022-08-26T11:36:51.295Z,73.68
2022-08-26T11:37:51.277Z,74.37
2022-08-26T11:38:51.273Z,74.07
2022-08-26T11:39:54.668Z,73.64
2022-08-26T11:40:51.252Z,72.58
2022-08-26T11:41:52.633Z,72.68
2022-08-26T11:42:51.236Z,73.34
2022-08-26T11:43:51.226Z,72.44
2022-08-26T11:44:51.198Z,71.91
2022-08-26T11:45:51.226Z,71.18
2022-08-26T11:46:51.164Z,70.78
2022-08-26T11:47:51.151Z,69.85
2022-08-26T11:48:51.132Z,70.09
2022-08-26T11:49:51.344Z,70.59
2022-08-26T11:50:51.114Z,70.89
2022-08-26T11:51:51.097Z,70.98
2022-08-26T11:52:51.082Z,71.81
2022-08-26T11:53:51.078Z,71.61
2022-08-26T11:54:51.077Z,71.91
2022-08-26T11:55:51.045Z,71.22
2022-08-26T11:56:51.035Z,71.42
2022-08-26T11:57:51.021Z,71.12
2022-08-26T11:58:51.048Z,71.61
2022-08-26T11:59:51.020Z,71.22
2022-08-26T12:00:50.978Z,72.11
2022-08-26T12:01:50.984Z,71.01
2022-08-26T12:02:50.988Z,71.51
2022-08-26T12:03:51.117Z,71.81
2022-08-26T12:04:51.148Z,71.31
2022-08-26T12:05:51.212Z,71.08
2022-08-26T12:06:50.949Z,70.82
2022-08-26T12:07:50.897Z,70.72
2022-08-26T12:08:50.900Z,71.31
2022-08-26T12:09:50.892Z,71.22
2022-08-26T12:10:50.850Z,71.51
2022-08-26T12:11:50.851Z,71.22
2022-08-26T12:12:50.828Z,71.91
2022-08-26T12:13:50.825Z,71.42
2022-08-26T12:14:50.814Z,71.22
2022-08-26T12:15:50.798Z,71.22
2022-08-26T12:16:50.826Z,71.61
2022-08-26T12:17:54.453Z,72.11
2022-08-26T12:18:50.751Z,72.01
2022-08-26T12:19:50.748Z,71.61
2022-08-26T12:20:50.894Z,71.22
2022-08-26T12:21:50.716Z,72.11
2022-08-26T12:22:50.707Z,71.72
2022-08-26T12:23:50.695Z,72.51
2022-08-26T12:24:50.691Z,71.61
2022-08-26T12:25:50.665Z,71.78
2022-08-26T12:26:50.645Z,71.78
2022-08-26T12:27:53.638Z,71.51
2022-08-26T12:28:50.622Z,71.81
2022-08-26T12:29:50.632Z,71.91
2022-08-26T12:30:50.597Z,71.81
2022-08-26T12:31:50.624Z,72.01
2022-08-26T12:32:57.451Z,72.11
2022-08-26T12:33:50.562Z,71.72
2022-08-26T12:34:50.554Z,72.01
2022-08-26T12:35:54.735Z,72.34
2022-08-26T12:36:50.566Z,72.44
2022-08-26T12:37:50.535Z,72.44
2022-08-26T12:38:50.493Z,72.25
2022-08-26T12:39:50.550Z,72.78
2022-08-26T12:40:50.557Z,72.78
2022-08-26T12:41:50.475Z,71.98
2022-08-26T12:42:50.439Z,71.98
2022-08-26T12:43:50.444Z,71.95
2022-08-26T12:44:53.250Z,72.05
2022-08-26T12:45:50.539Z,71.95
2022-08-26T12:46:50.387Z,71.25
2022-08-26T12:47:50.380Z,71.25
2022-08-26T12:48:50.422Z,70.95
2022-08-26T12:49:50.480Z,70.72
2022-08-26T12:50:50.335Z,70.52
2022-08-26T12:51:50.351Z,70.82
2022-08-26T12:52:50.318Z,70.22
2022-08-26T12:53:50.308Z,70.03
2022-08-26T12:54:53.571Z,70.52
2022-08-26T12:55:50.297Z,70.03
2022-08-26T12:56:50.258Z,70.03
2022-08-26T12:57:50.264Z,69.43
2022-08-26T12:58:50.265Z,69.53
2022-08-26T12:59:50.229Z,69.73
2022-08-26T13:00:50.402Z,70.32
2022-08-26T13:01:50.312Z,70.22
2022-08-26T13:02:50.175Z,69.62
2022-08-26T13:03:50.175Z,70.19
2022-08-26T13:04:50.173Z,69.89
2022-08-26T13:05:50.159Z,69.59
2022-08-26T13:06:50.124Z,69.43
2022-08-26T13:07:50.131Z,69.43
2022-08-26T13:08:50.100Z,69.82
2022-08-26T13:09:50.170Z,70.45
2022-08-26T13:10:50.085Z,70.75
2022-08-26T13:11:50.075Z,70.62
2022-08-26T13:12:50.058Z,70.72
2022-08-26T13:13:50.239Z,71.22
2022-08-26T13:14:50.047Z,72.55
2022-08-26T13:15:50.098Z,73.44
2022-08-26T13:16:49.997Z,74.13